GLO1711 SBGO-SBBR
Flight info
| Callsign | GLO1711 |
|---|---|
| Flight time | 0h 22m |
| Altitude | 15000 |
| Route | LODUV Z15 PAJEM DCT |
| Aircraft | B737/M-SDFGIKLORWXY/LB1 |
Departure
| Time | 2026-04-28 02:59 |
|---|---|
| Airport | Santa Genoveva International Airport (SBGO) |
Arrival
| Time | 2026-04-28 03:22 |
|---|---|
| Airport | Presidente Juscelino Kubitschek International Airport (SBBR) |
| Time | Latitude | Longitude | Altitude | Speed | Heading |
|---|---|---|---|---|---|
| 2026-04-28 02:46 | -16.63010 | -49.21516 | 2466 ft | 0 kts | 56° |
| 2026-04-28 02:50 | -16.63015 | -49.21524 | 2459 ft | 3 kts | 59° |
| 2026-04-28 02:50 | -16.63021 | -49.21537 | 2462 ft | 3 kts | 67° |
| 2026-04-28 02:50 | -16.63028 | -49.21556 | 2464 ft | 3 kts | 82° |
| 2026-04-28 02:51 | -16.63029 | -49.21571 | 2461 ft | 1 kts | 91° |
| 2026-04-28 02:51 | -16.63029 | -49.21572 | 2462 ft | 1 kts | 91° |
| 2026-04-28 02:54 | -16.63030 | -49.21570 | 2459 ft | 1 kts | 111° |
| 2026-04-28 02:54 | -16.63059 | -49.21555 | 2463 ft | 12 kts | 150° |
| 2026-04-28 02:54 | -16.63116 | -49.21507 | 2463 ft | 10 kts | 134° |
| 2026-04-28 02:55 | -16.63155 | -49.21451 | 2460 ft | 10 kts | 121° |
| 2026-04-28 02:55 | -16.63190 | -49.21391 | 2463 ft | 9 kts | 120° |
| 2026-04-28 02:55 | -16.63222 | -49.21333 | 2464 ft | 9 kts | 120° |
| 2026-04-28 02:55 | -16.63254 | -49.21276 | 2463 ft | 9 kts | 120° |
| 2026-04-28 02:56 | -16.63284 | -49.21220 | 2462 ft | 9 kts | 120° |
| 2026-04-28 02:56 | -16.63314 | -49.21167 | 2465 ft | 8 kts | 120° |
| 2026-04-28 02:56 | -16.63344 | -49.21115 | 2462 ft | 8 kts | 121° |
| 2026-04-28 02:56 | -16.63376 | -49.21062 | 2462 ft | 9 kts | 129° |
| 2026-04-28 02:57 | -16.63428 | -49.21030 | 2461 ft | 9 kts | 166° |
| 2026-04-28 02:57 | -16.63489 | -49.21014 | 2462 ft | 9 kts | 166° |
| 2026-04-28 02:57 | -16.63548 | -49.20999 | 2462 ft | 9 kts | 168° |
| 2026-04-28 02:57 | -16.63604 | -49.21018 | 2461 ft | 8 kts | 209° |
| 2026-04-28 02:58 | -16.63654 | -49.21049 | 2461 ft | 8 kts | 211° |
| 2026-04-28 02:58 | -16.63702 | -49.21079 | 2461 ft | 8 kts | 211° |
| 2026-04-28 02:58 | -16.63746 | -49.21112 | 2463 ft | 8 kts | 238° |
| 2026-04-28 02:58 | -16.63735 | -49.21158 | 2467 ft | 0 kts | 301° |
| 2026-04-28 02:59 | -16.63644 | -49.21320 | 2466 ft | 70 kts | 300° |
| 2026-04-28 02:59 | -16.63246 | -49.22025 | 2464 ft | 153 kts | 300° |
| 2026-04-28 02:59 | -16.62614 | -49.23150 | 2891 ft | 191 kts | 300° |
| 2026-04-28 02:59 | -16.61960 | -49.24330 | 4124 ft | 191 kts | 300° |
| 2026-04-28 03:00 | -16.61254 | -49.25618 | 4747 ft | 221 kts | 300° |
| 2026-04-28 03:00 | -16.60430 | -49.27128 | 5080 ft | 254 kts | 300° |
| 2026-04-28 03:00 | -16.59272 | -49.28569 | 5504 ft | 278 kts | 329° |
| 2026-04-28 03:00 | -16.57424 | -49.29116 | 6461 ft | 281 kts | 4° |
| 2026-04-28 03:01 | -16.55572 | -49.28544 | 7535 ft | 279 kts | 33° |
| 2026-04-28 03:01 | -16.54157 | -49.27174 | 8574 ft | 281 kts | 55° |
| 2026-04-28 03:01 | -16.53232 | -49.25367 | 9604 ft | 285 kts | 68° |
| 2026-04-28 03:01 | -16.52525 | -49.23407 | 10457 ft | 296 kts | 71° |
| 2026-04-28 03:02 | -16.51833 | -49.21316 | 10929 ft | 318 kts | 71° |
| 2026-04-28 03:02 | -16.51109 | -49.19115 | 11812 ft | 323 kts | 71° |
| 2026-04-28 03:02 | -16.50368 | -49.16908 | 12894 ft | 322 kts | 71° |
| 2026-04-28 03:02 | -16.49619 | -49.14719 | 14005 ft | 319 kts | 70° |
| 2026-04-28 03:03 | -16.48862 | -49.12538 | 14710 ft | 320 kts | 70° |
| 2026-04-28 03:03 | -16.48104 | -49.10377 | 15021 ft | 317 kts | 70° |
| 2026-04-28 03:03 | -16.47340 | -49.08212 | 15081 ft | 318 kts | 69° |
| 2026-04-28 03:03 | -16.46573 | -49.06049 | 15103 ft | 318 kts | 69° |
| 2026-04-28 03:04 | -16.45803 | -49.03879 | 15126 ft | 319 kts | 69° |
| 2026-04-28 03:04 | -16.45041 | -49.01735 | 15124 ft | 320 kts | 69° |
| 2026-04-28 03:04 | -16.44268 | -48.99560 | 15137 ft | 321 kts | 69° |
| 2026-04-28 03:04 | -16.43495 | -48.97373 | 15134 ft | 321 kts | 70° |
| 2026-04-28 03:05 | -16.42767 | -48.95175 | 15136 ft | 321 kts | 71° |
| 2026-04-28 03:05 | -16.42029 | -48.92977 | 15137 ft | 321 kts | 70° |
| 2026-04-28 03:05 | -16.41266 | -48.90797 | 15135 ft | 320 kts | 69° |
| 2026-04-28 03:05 | -16.40482 | -48.88631 | 15130 ft | 320 kts | 69° |
| 2026-04-28 03:06 | -16.39685 | -48.86469 | 15134 ft | 319 kts | 69° |
| 2026-04-28 03:06 | -16.38883 | -48.84312 | 15133 ft | 319 kts | 68° |
| 2026-04-28 03:06 | -16.38078 | -48.82163 | 15129 ft | 319 kts | 67° |
| 2026-04-28 03:06 | -16.37056 | -48.80117 | 15123 ft | 318 kts | 57° |
| 2026-04-28 03:07 | -16.35848 | -48.78190 | 15120 ft | 318 kts | 56° |
| 2026-04-28 03:07 | -16.34614 | -48.76276 | 15112 ft | 318 kts | 56° |
| 2026-04-28 03:07 | -16.33378 | -48.74359 | 15113 ft | 318 kts | 56° |
| 2026-04-28 03:07 | -16.32164 | -48.72463 | 15109 ft | 318 kts | 56° |
| 2026-04-28 03:08 | -16.30939 | -48.70541 | 15095 ft | 319 kts | 56° |
| 2026-04-28 03:08 | -16.29714 | -48.68611 | 15092 ft | 319 kts | 56° |
| 2026-04-28 03:08 | -16.28493 | -48.66683 | 15086 ft | 319 kts | 56° |
| 2026-04-28 03:08 | -16.27271 | -48.64753 | 15077 ft | 319 kts | 56° |
| 2026-04-28 03:09 | -16.26061 | -48.62842 | 15066 ft | 319 kts | 56° |
| 2026-04-28 03:09 | -16.24823 | -48.60887 | 15062 ft | 319 kts | 56° |
| 2026-04-28 03:09 | -16.23625 | -48.58978 | 15055 ft | 319 kts | 57° |
| 2026-04-28 03:09 | -16.22438 | -48.57024 | 15055 ft | 319 kts | 57° |
| 2026-04-28 03:10 | -16.21250 | -48.55045 | 14779 ft | 324 kts | 58° |
| 2026-04-28 03:10 | -16.20055 | -48.53052 | 14429 ft | 326 kts | 58° |
| 2026-04-28 03:10 | -16.18853 | -48.51049 | 14035 ft | 324 kts | 58° |
| 2026-04-28 03:10 | -16.17664 | -48.49071 | 13594 ft | 322 kts | 58° |
| 2026-04-28 03:11 | -16.16493 | -48.47126 | 13140 ft | 320 kts | 58° |
| 2026-04-28 03:11 | -16.15314 | -48.45169 | 12701 ft | 318 kts | 58° |
| 2026-04-28 03:11 | -16.14140 | -48.43221 | 12261 ft | 316 kts | 58° |
| 2026-04-28 03:11 | -16.12973 | -48.41288 | 11834 ft | 314 kts | 58° |
| 2026-04-28 03:12 | -16.11831 | -48.39395 | 11413 ft | 312 kts | 58° |
| 2026-04-28 03:12 | -16.10680 | -48.37489 | 10984 ft | 310 kts | 58° |
| 2026-04-28 03:12 | -16.09534 | -48.35591 | 10553 ft | 310 kts | 59° |
| 2026-04-28 03:12 | -16.08385 | -48.33690 | 10242 ft | 305 kts | 59° |
| 2026-04-28 03:13 | -16.07272 | -48.31849 | 9990 ft | 298 kts | 59° |
| 2026-04-28 03:13 | -16.06197 | -48.30072 | 9807 ft | 287 kts | 59° |
| 2026-04-28 03:13 | -16.05133 | -48.28310 | 9273 ft | 291 kts | 59° |
| 2026-04-28 03:13 | -16.04052 | -48.26521 | 8827 ft | 291 kts | 59° |
| 2026-04-28 03:14 | -16.02978 | -48.24744 | 8449 ft | 289 kts | 59° |
| 2026-04-28 03:14 | -16.01912 | -48.22983 | 8079 ft | 287 kts | 59° |
| 2026-04-28 03:14 | -16.00852 | -48.21232 | 7714 ft | 285 kts | 59° |
| 2026-04-28 03:14 | -15.99775 | -48.19514 | 7338 ft | 284 kts | 52° |
| 2026-04-28 03:15 | -15.98245 | -48.18235 | 7042 ft | 282 kts | 28° |
| 2026-04-28 03:15 | -15.96396 | -48.17628 | 6861 ft | 275 kts | 13° |
| 2026-04-28 03:15 | -15.94555 | -48.17240 | 6726 ft | 265 kts | 13° |
| 2026-04-28 03:15 | -15.92780 | -48.16868 | 6631 ft | 254 kts | 13° |
| 2026-04-28 03:16 | -15.91077 | -48.16503 | 6522 ft | 245 kts | 14° |
| 2026-04-28 03:16 | -15.89490 | -48.16057 | 6429 ft | 233 kts | 32° |
| 2026-04-28 03:16 | -15.88464 | -48.14906 | 6439 ft | 210 kts | 71° |
| 2026-04-28 03:16 | -15.88080 | -48.13512 | 6441 ft | 194 kts | 78° |
| 2026-04-28 03:17 | -15.87804 | -48.12162 | 6434 ft | 188 kts | 80° |
| 2026-04-28 03:17 | -15.87451 | -48.09505 | 6313 ft | 178 kts | 86° |
| 2026-04-28 03:17 | -15.87360 | -48.08257 | 6197 ft | 169 kts | 87° |
| 2026-04-28 03:18 | -15.87281 | -48.07057 | 6106 ft | 167 kts | 87° |
| 2026-04-28 03:18 | -15.87203 | -48.05862 | 5916 ft | 166 kts | 87° |
| 2026-04-28 03:18 | -15.87127 | -48.04684 | 5719 ft | 161 kts | 86° |
| 2026-04-28 03:18 | -15.87051 | -48.03510 | 5515 ft | 164 kts | 87° |
| 2026-04-28 03:19 | -15.86976 | -48.02345 | 5332 ft | 161 kts | 86° |
| 2026-04-28 03:19 | -15.86902 | -48.01207 | 5109 ft | 150 kts | 86° |
| 2026-04-28 03:19 | -15.86835 | -48.00180 | 4911 ft | 135 kts | 87° |
| 2026-04-28 03:19 | -15.86774 | -47.99232 | 4766 ft | 133 kts | 86° |
| 2026-04-28 03:20 | -15.86712 | -47.98263 | 4607 ft | 135 kts | 86° |
| 2026-04-28 03:20 | -15.86648 | -47.97273 | 4407 ft | 138 kts | 86° |
| 2026-04-28 03:20 | -15.86584 | -47.96277 | 4229 ft | 141 kts | 85° |
| 2026-04-28 03:20 | -15.86517 | -47.95243 | 4018 ft | 145 kts | 85° |
| 2026-04-28 03:21 | -15.86449 | -47.94189 | 3806 ft | 147 kts | 85° |
| 2026-04-28 03:21 | -15.86380 | -47.93128 | 3587 ft | 148 kts | 86° |
| 2026-04-28 03:21 | -15.86313 | -47.92078 | 3470 ft | 138 kts | 85° |
| 2026-04-28 03:21 | -15.86259 | -47.91230 | 3466 ft | 98 kts | 86° |
| 2026-04-28 03:22 | -15.86269 | -47.90841 | 3477 ft | 15 kts | 124° |
| 2026-04-28 03:22 | -15.86316 | -47.90782 | 3478 ft | 8 kts | 128° |
| 2026-04-28 03:22 | -15.86352 | -47.90738 | 3480 ft | 8 kts | 137° |
| 2026-04-28 03:22 | -15.86397 | -47.90717 | 3483 ft | 7 kts | 187° |
| 2026-04-28 03:23 | -15.86422 | -47.90759 | 3483 ft | 7 kts | 265° |
| 2026-04-28 03:23 | -15.86425 | -47.90811 | 3482 ft | 8 kts | 266° |
| 2026-04-28 03:23 | -15.86429 | -47.90870 | 3479 ft | 9 kts | 266° |
| 2026-04-28 03:23 | -15.86434 | -47.90944 | 3476 ft | 12 kts | 266° |
| 2026-04-28 03:24 | -15.86440 | -47.91051 | 3471 ft | 17 kts | 266° |
| 2026-04-28 03:24 | -15.86449 | -47.91185 | 3468 ft | 19 kts | 266° |
| 2026-04-28 03:24 | -15.86458 | -47.91324 | 3467 ft | 19 kts | 266° |
| 2026-04-28 03:24 | -15.86467 | -47.91456 | 3465 ft | 18 kts | 266° |
| 2026-04-28 03:25 | -15.86477 | -47.91585 | 3464 ft | 18 kts | 265° |
| 2026-04-28 03:25 | -15.86483 | -47.91709 | 3466 ft | 17 kts | 266° |
| 2026-04-28 03:25 | -15.86495 | -47.91797 | 3467 ft | 10 kts | 239° |
| 2026-04-28 03:25 | -15.86559 | -47.91814 | 3469 ft | 10 kts | 178° |
| 2026-04-28 03:26 | -15.86606 | -47.91829 | 3469 ft | 5 kts | 239° |
| 2026-04-28 03:26 | -15.86636 | -47.91849 | 3470 ft | 5 kts | 185° |
| 2026-04-28 03:26 | -15.86672 | -47.91846 | 3471 ft | 5 kts | 177° |
| 2026-04-28 03:26 | -15.86702 | -47.91844 | 3471 ft | 2 kts | 176° |
| 2026-04-28 03:27 | -15.86709 | -47.91844 | 3471 ft | 0 kts | 176° |